createdAt,value
2019-04-21T00:00:37.356Z,15.63
2019-04-21T00:03:16.448Z,15.57
2019-04-21T00:05:57.176Z,15.52
2019-04-21T00:08:44.162Z,15.46
2019-04-21T00:11:05.891Z,15.42
2019-04-21T00:13:31.308Z,15.35
2019-04-21T00:15:48.814Z,15.27
2019-04-21T00:18:40.748Z,15.25
2019-04-21T00:21:11.724Z,15.21
2019-04-21T00:23:54.087Z,15.15
2019-04-21T00:26:26.511Z,15.12
2019-04-21T00:29:05.058Z,15.13
2019-04-21T00:31:24.550Z,15.08
2019-04-21T00:33:41.624Z,15.00
2019-04-21T00:36:15.937Z,14.94
2019-04-21T00:39:18.631Z,14.85
2019-04-21T00:41:29.456Z,14.75
2019-04-21T00:43:59.601Z,14.68
2019-04-21T00:46:33.176Z,14.63
2019-04-21T00:49:02.011Z,14.58
2019-04-21T00:51:46.807Z,14.49
2019-04-21T00:54:18.471Z,14.41
2019-04-21T00:56:46.706Z,14.38
2019-04-21T00:59:14.955Z,14.30
2019-04-21T01:01:46.075Z,14.21
2019-04-21T01:04:15.350Z,14.13
2019-04-21T01:06:48.351Z,14.04
2019-04-21T01:09:13.837Z,13.94
2019-04-21T01:11:49.289Z,13.88
2019-04-21T01:14:29.797Z,13.77
2019-04-21T01:16:51.693Z,13.69
2019-04-21T01:19:16.819Z,13.66
2019-04-21T01:21:31.816Z,13.61
2019-04-21T01:24:07.832Z,13.57
2019-04-21T01:26:43.776Z,13.53
2019-04-21T01:29:19.284Z,13.49
2019-04-21T01:32:03.729Z,13.41
2019-04-21T01:34:28.828Z,13.33
2019-04-21T01:36:54.241Z,13.26
2019-04-21T01:39:39.344Z,13.17
2019-04-21T01:42:04.967Z,13.10
2019-04-21T01:44:38.990Z,13.01
2019-04-21T01:46:58.772Z,12.93
2019-04-21T01:49:26.672Z,12.85
2019-04-21T01:52:17.843Z,12.72
2019-04-21T01:55:00.350Z,12.67
2019-04-21T01:57:34.505Z,12.58
2019-04-21T02:00:02.307Z,12.48
2019-04-21T02:02:47.705Z,12.35
2019-04-21T02:05:17.480Z,12.29
2019-04-21T02:07:41.820Z,12.25
2019-04-21T02:10:17.670Z,12.18
2019-04-21T02:12:48.400Z,12.11
2019-04-21T02:15:26.861Z,12.04
2019-04-21T02:17:51.397Z,11.98
2019-04-21T02:20:12.035Z,11.92
2019-04-21T02:23:08.448Z,11.86
2019-04-21T02:25:23.147Z,11.77
2019-04-21T02:28:00.805Z,11.70
2019-04-21T02:30:36.209Z,11.66
2019-04-21T02:33:16.944Z,11.60
2019-04-21T02:35:39.489Z,11.54
2019-04-21T02:40:44.976Z,11.42
2019-04-21T02:43:11.428Z,11.38
2019-04-21T02:45:39.355Z,11.33
2019-04-21T02:53:21.142Z,11.18
2019-04-21T02:55:45.718Z,11.10
2019-04-21T03:00:59.613Z,11.01
2019-04-21T03:03:41.741Z,10.92
2019-04-21T03:06:08.758Z,10.88
2019-04-21T03:08:44.328Z,10.83
2019-04-21T03:13:41.763Z,10.70
2019-04-21T03:16:18.447Z,10.67
2019-04-21T03:18:54.243Z,10.61
2019-04-21T03:23:56.351Z,10.64
2019-04-21T03:26:27.270Z,10.67
2019-04-21T03:34:31.767Z,10.81
2019-04-21T03:36:43.913Z,10.84
2019-04-21T03:38:51.049Z,10.89
2019-04-21T03:41:26.483Z,10.92
2019-04-21T03:43:52.622Z,10.89
2019-04-21T03:46:41.276Z,10.86
2019-04-21T03:51:29.420Z,10.78
2019-04-21T03:53:57.638Z,10.74
2019-04-21T04:01:57.794Z,10.66
2019-04-21T04:04:27.953Z,10.62
2019-04-21T04:07:24.224Z,10.58
2019-04-21T04:09:54.035Z,10.54
2019-04-21T04:12:32.988Z,10.47
2019-04-21T04:14:55.334Z,10.43
2019-04-21T04:17:20.363Z,10.42
2019-04-21T04:29:59.280Z,10.28
2019-04-21T04:32:30.691Z,10.27
2019-04-21T04:35:05.753Z,10.24
2019-04-21T04:37:32.808Z,10.20
2019-04-21T04:40:14.274Z,10.17
2019-04-21T04:45:28.366Z,10.10
2019-04-21T04:47:51.255Z,10.07
2019-04-21T04:50:22.577Z,10.02
2019-04-21T04:52:45.818Z,10.01
2019-04-21T04:55:27.073Z,10.01
2019-04-21T04:58:01.030Z,10.04
2019-04-21T05:00:28.751Z,10.09
2019-04-21T05:03:01.186Z,10.15
2019-04-21T05:05:40.343Z,10.18
2019-04-21T05:07:57.742Z,10.23
2019-04-21T05:12:53.214Z,10.25
2019-04-21T05:15:25.511Z,10.24
2019-04-21T05:18:02.402Z,10.23
2019-04-21T05:22:54.486Z,10.22
2019-04-21T05:25:18.560Z,10.24
2019-04-21T05:27:55.368Z,10.25
2019-04-21T05:30:33.846Z,10.26
2019-04-21T05:33:10.769Z,10.29
2019-04-21T05:35:45.203Z,10.34
2019-04-21T05:38:17.157Z,10.39
2019-04-21T05:40:40.135Z,10.46
2019-04-21T05:43:21.393Z,10.53
2019-04-21T05:45:53.535Z,10.58
2019-04-21T05:50:53.762Z,10.69
2019-04-21T05:53:29.538Z,10.73
2019-04-21T05:55:58.674Z,10.81
2019-04-21T05:58:27.279Z,10.88
2019-04-21T06:01:33.423Z,10.97
2019-04-21T06:03:49.240Z,11.01
2019-04-21T06:06:22.033Z,11.11
2019-04-21T06:08:49.718Z,11.20
2019-04-21T06:11:28.813Z,11.31
2019-04-21T06:13:55.034Z,11.49
2019-04-21T06:16:43.005Z,11.58
2019-04-21T06:19:05.214Z,11.66
2019-04-21T06:21:21.732Z,11.75
2019-04-21T06:24:13.095Z,11.84
2019-04-21T06:26:52.318Z,11.85
2019-04-21T06:28:56.894Z,11.90
2019-04-21T06:31:57.920Z,11.97
2019-04-21T06:33:58.541Z,12.03
2019-04-21T06:36:47.435Z,12.12
2019-04-21T06:39:12.118Z,12.20
2019-04-21T06:46:40.774Z,12.45
2019-04-21T06:49:19.467Z,12.53
2019-04-21T06:51:37.161Z,12.63
2019-04-21T06:54:17.467Z,12.74
2019-04-21T06:57:21.858Z,12.83
2019-04-21T06:59:09.359Z,12.90
2019-04-21T07:09:21.000Z,13.23
2019-04-21T07:11:44.553Z,13.32
2019-04-21T07:16:50.862Z,13.51
2019-04-21T07:19:30.790Z,13.59
2019-04-21T07:21:54.233Z,13.67
2019-04-21T07:24:30.418Z,13.78
2019-04-21T07:26:55.625Z,13.86
2019-04-21T07:29:32.212Z,14.00
2019-04-21T07:31:58.686Z,14.07
2019-04-21T07:39:29.729Z,14.40
2019-04-21T07:41:53.990Z,14.54
2019-04-21T07:44:28.893Z,14.62
2019-04-21T07:46:57.306Z,14.73
2019-04-21T07:49:39.941Z,14.81
2019-04-21T07:52:33.536Z,14.87
2019-04-21T07:55:05.551Z,14.98
2019-04-21T07:57:28.112Z,15.17
2019-04-21T08:00:08.391Z,15.25
2019-04-21T08:02:29.170Z,15.34
2019-04-21T08:05:09.971Z,15.52
2019-04-21T08:07:41.519Z,15.70
2019-04-21T08:09:57.223Z,15.76
2019-04-21T08:12:24.633Z,15.84
2019-04-21T08:15:09.660Z,15.86
2019-04-21T08:17:35.956Z,15.95
2019-04-21T08:20:07.812Z,16.05
2019-04-21T08:22:43.207Z,16.18
2019-04-21T08:25:08.739Z,16.26
2019-04-21T08:27:55.570Z,16.37
2019-04-21T08:30:14.299Z,16.48
2019-04-21T08:32:57.294Z,16.57
2019-04-21T08:35:33.662Z,16.61
2019-04-21T08:37:44.980Z,16.71
2019-04-21T08:42:44.751Z,16.93
2019-04-21T08:45:21.992Z,17.08
2019-04-21T08:47:52.118Z,17.12
2019-04-21T08:50:20.823Z,17.21
2019-04-21T08:53:08.022Z,17.30
2019-04-21T08:55:32.102Z,17.43
2019-04-21T08:58:15.236Z,17.47
2019-04-21T09:00:56.362Z,17.56
2019-04-21T09:03:43.388Z,17.63
2019-04-21T09:06:18.937Z,17.74
2019-04-21T09:08:46.110Z,17.81
2019-04-21T09:11:14.964Z,17.90
2019-04-21T09:13:40.963Z,17.97
2019-04-21T09:16:16.944Z,18.08
2019-04-21T09:18:40.445Z,18.19
2019-04-21T09:21:21.868Z,18.27
2019-04-21T09:23:45.305Z,18.36
2019-04-21T09:26:20.087Z,18.44
2019-04-21T09:28:45.214Z,18.49
2019-04-21T09:31:06.371Z,18.59
2019-04-21T09:33:40.721Z,18.68
2019-04-21T09:36:09.701Z,18.77
2019-04-21T09:38:41.546Z,18.85
2019-04-21T09:41:14.297Z,18.98
2019-04-21T09:43:45.307Z,19.08
2019-04-21T09:46:09.825Z,19.16
2019-04-21T09:48:49.861Z,19.29
2019-04-21T09:51:11.066Z,19.39
2019-04-21T09:53:42.227Z,19.50
2019-04-21T09:56:16.700Z,19.61
2019-04-21T09:58:49.462Z,19.70
2019-04-21T10:01:22.817Z,19.78
2019-04-21T10:03:48.649Z,19.88
2019-04-21T10:06:18.750Z,20.00
2019-04-21T10:08:49.506Z,20.09
2019-04-21T10:11:20.768Z,20.16
2019-04-21T10:13:50.713Z,20.22
2019-04-21T10:16:24.627Z,20.31
2019-04-21T10:18:54.789Z,20.43
2019-04-21T10:21:25.829Z,20.47
2019-04-21T10:23:55.166Z,20.52
2019-04-21T10:26:24.503Z,20.65
2019-04-21T10:28:58.585Z,20.76
2019-04-21T10:31:24.990Z,20.86
2019-04-21T10:33:54.557Z,20.99
2019-04-21T10:36:26.858Z,21.08
2019-04-21T10:38:55.838Z,21.20
2019-04-21T10:41:26.083Z,21.29
2019-04-21T10:43:55.589Z,21.38
2019-04-21T10:46:24.918Z,21.40
2019-04-21T10:48:55.010Z,21.49
2019-04-21T10:51:25.447Z,21.65
2019-04-21T10:53:55.997Z,21.75
2019-04-21T10:56:31.312Z,21.89
2019-04-21T10:58:56.424Z,22.02
2019-04-21T11:01:27.377Z,22.18
2019-04-21T11:04:21.901Z,22.29
2019-04-21T11:06:48.210Z,22.44
2019-04-21T11:09:17.976Z,22.67
2019-04-21T11:11:49.893Z,22.83
2019-04-21T11:14:19.328Z,22.98
2019-04-21T11:16:51.532Z,23.17
2019-04-21T11:19:22.035Z,23.34
2019-04-21T11:21:52.591Z,23.58
2019-04-21T11:24:22.999Z,23.77
2019-04-21T11:26:53.755Z,23.95
2019-04-21T11:29:23.402Z,24.15
2019-04-21T11:31:52.781Z,24.30
2019-04-21T11:34:23.076Z,24.51
2019-04-21T11:36:52.501Z,24.72
2019-04-21T11:39:37.581Z,24.88
2019-04-21T11:42:01.642Z,25.09
2019-04-21T11:44:31.142Z,25.34
2019-04-21T11:47:00.629Z,25.57
2019-04-21T11:49:32.006Z,25.79
2019-04-21T11:52:00.942Z,26.00
2019-04-21T11:54:30.983Z,26.18
2019-04-21T11:57:03.390Z,26.32
2019-04-21T11:59:31.477Z,26.52
2019-04-21T12:02:01.545Z,26.72
2019-04-21T12:04:31.684Z,26.85
2019-04-21T12:07:01.879Z,27.10
2019-04-21T12:09:31.252Z,27.33
2019-04-21T12:12:01.239Z,27.58
2019-04-21T12:14:32.124Z,27.77
2019-04-21T12:17:02.671Z,27.93
2019-04-21T12:19:33.076Z,28.19
2019-04-21T12:22:10.992Z,28.58
2019-04-21T12:24:36.834Z,29.05
2019-04-21T12:27:06.127Z,29.50
2019-04-21T12:29:35.637Z,30.02
2019-04-21T12:32:09.772Z,30.86
2019-04-21T12:34:39.745Z,30.86
2019-04-21T12:37:09.035Z,31.24
2019-04-21T12:39:38.763Z,31.76
2019-04-21T12:42:09.142Z,32.17
2019-04-21T12:44:39.174Z,32.32
2019-04-21T12:47:09.988Z,32.75
2019-04-21T12:49:39.837Z,33.13
2019-04-21T12:52:11.434Z,33.59
2019-04-21T12:54:41.797Z,33.71
2019-04-21T12:57:11.790Z,34.00
2019-04-21T12:59:42.528Z,34.42
2019-04-21T13:02:11.933Z,34.85
2019-04-21T13:04:42.011Z,35.13
2019-04-21T13:07:11.465Z,35.46
2019-04-21T13:09:42.080Z,35.90
2019-04-21T13:12:13.019Z,36.23
2019-04-21T13:14:42.430Z,36.71
2019-04-21T13:17:13.046Z,37.02
2019-04-21T13:19:43.231Z,37.07
2019-04-21T13:22:12.611Z,37.17
2019-04-21T13:24:42.250Z,37.34
2019-04-21T13:27:12.779Z,37.58
2019-04-21T13:29:42.128Z,37.82
2019-04-21T13:32:12.613Z,38.06
2019-04-21T13:34:42.204Z,38.32
2019-04-21T13:37:11.917Z,38.58
2019-04-21T13:40:18.225Z,38.66
2019-04-21T13:42:36.600Z,38.68
2019-04-21T13:45:02.163Z,38.66
2019-04-21T13:47:30.487Z,38.78
2019-04-21T13:50:01.523Z,38.82
2019-04-21T13:52:33.128Z,38.63
2019-04-21T13:55:03.384Z,38.54
2019-04-21T13:57:32.770Z,38.82
2019-04-21T14:00:03.500Z,39.14
2019-04-21T14:02:34.519Z,39.35
2019-04-21T14:05:11.484Z,39.21
2019-04-21T14:07:39.035Z,39.17
2019-04-21T14:10:11.026Z,39.41
2019-04-21T14:12:40.648Z,39.43
2019-04-21T14:15:12.526Z,39.51
2019-04-21T14:17:42.568Z,39.61
2019-04-21T14:20:13.231Z,39.55
2019-04-21T14:22:43.948Z,39.73
2019-04-21T14:25:15.331Z,39.86
2019-04-21T14:27:47.346Z,39.99
2019-04-21T14:30:18.682Z,39.83
2019-04-21T14:32:48.055Z,39.79
2019-04-21T14:35:18.828Z,39.63
2019-04-21T14:37:48.780Z,39.43
2019-04-21T14:40:23.675Z,39.35
2019-04-21T14:42:49.955Z,39.51
2019-04-21T14:45:20.988Z,39.45
2019-04-21T14:47:54.761Z,39.35
2019-04-21T14:50:44.324Z,39.32
2019-04-21T14:53:18.081Z,39.27
2019-04-21T14:55:49.032Z,39.06
2019-04-21T14:58:19.168Z,38.79
2019-04-21T15:00:52.976Z,38.69
2019-04-21T15:03:23.664Z,38.42
2019-04-21T15:05:53.953Z,38.05
2019-04-21T15:08:24.840Z,37.82
2019-04-21T15:10:54.961Z,37.64
2019-04-21T15:13:25.848Z,37.38
2019-04-21T15:15:56.262Z,37.01
2019-04-21T15:18:26.877Z,36.64
2019-04-21T15:20:57.362Z,36.25
2019-04-21T15:23:28.288Z,36.04
2019-04-21T15:25:57.818Z,35.69
2019-04-21T15:28:31.596Z,35.38
2019-04-21T15:30:58.631Z,35.09
2019-04-21T15:33:28.717Z,34.77
2019-04-21T15:35:58.062Z,34.51
2019-04-21T15:38:27.718Z,34.20
2019-04-21T15:41:01.247Z,33.93
2019-04-21T15:43:28.657Z,33.62
2019-04-21T15:45:58.056Z,33.24
2019-04-21T15:48:28.788Z,32.88
2019-04-21T15:50:59.117Z,32.24
2019-04-21T15:53:31.952Z,32.07
2019-04-21T15:56:03.003Z,31.85
2019-04-21T15:58:40.930Z,31.52
2019-04-21T16:01:20.892Z,31.34
2019-04-21T16:03:50.251Z,31.15
2019-04-21T16:06:19.570Z,30.84
2019-04-21T16:08:52.533Z,30.66
2019-04-21T16:11:19.993Z,30.46
2019-04-21T16:13:49.830Z,30.38
2019-04-21T16:16:20.193Z,30.21
2019-04-21T16:18:50.032Z,30.00
2019-04-21T16:21:19.821Z,29.84
2019-04-21T16:23:50.642Z,29.63
2019-04-21T16:26:20.386Z,29.49
2019-04-21T16:28:51.157Z,29.33
2019-04-21T16:31:20.499Z,29.17
2019-04-21T16:33:51.205Z,28.99
2019-04-21T16:36:20.583Z,28.84
2019-04-21T16:38:51.374Z,28.72
2019-04-21T16:41:20.754Z,28.58
2019-04-21T16:43:51.359Z,28.31
2019-04-21T16:46:21.143Z,28.19
2019-04-21T16:48:51.673Z,27.97
2019-04-21T16:51:22.202Z,27.70
2019-04-21T16:53:53.412Z,27.70
2019-04-21T16:56:24.785Z,27.48
2019-04-21T16:58:56.722Z,27.24
2019-04-21T17:01:29.739Z,27.08
2019-04-21T17:04:00.204Z,27.04
2019-04-21T17:06:31.069Z,26.89
2019-04-21T17:09:00.960Z,26.73
2019-04-21T17:11:35.321Z,26.67
2019-04-21T17:14:03.601Z,26.39
2019-04-21T17:17:15.646Z,26.33
2019-04-21T17:19:13.502Z,26.21
2019-04-21T17:21:35.056Z,26.18
2019-04-21T17:24:04.621Z,26.11
2019-04-21T17:26:39.046Z,25.99
2019-04-21T17:29:06.855Z,25.90
2019-04-21T17:31:37.162Z,25.79
2019-04-21T17:34:12.383Z,25.69
2019-04-21T17:36:39.144Z,25.55
2019-04-21T17:39:09.235Z,25.44
2019-04-21T17:41:54.123Z,25.36
2019-04-21T17:44:10.652Z,25.32
2019-04-21T17:46:46.562Z,25.23
2019-04-21T17:49:11.012Z,25.14
2019-04-21T17:51:54.616Z,25.03
2019-04-21T17:54:33.263Z,24.96
2019-04-21T17:57:16.317Z,24.84
2019-04-21T17:59:56.591Z,24.71
2019-04-21T18:02:23.228Z,24.62
2019-04-21T18:04:49.661Z,24.51
2019-04-21T18:07:27.361Z,24.37
2019-04-21T18:10:00.160Z,24.23
2019-04-21T18:12:29.859Z,24.10
2019-04-21T18:14:54.139Z,23.94
2019-04-21T18:17:14.624Z,23.85
2019-04-21T18:19:47.419Z,23.73
2019-04-21T18:22:38.543Z,23.63
2019-04-21T18:25:12.601Z,23.56
2019-04-21T18:27:38.793Z,23.45
2019-04-21T18:30:28.390Z,23.35
2019-04-21T18:32:58.673Z,23.27
2019-04-21T18:35:36.006Z,23.17
2019-04-21T18:38:20.106Z,23.06
2019-04-21T18:40:46.999Z,22.97
2019-04-21T18:43:53.202Z,22.84
2019-04-21T18:46:17.615Z,22.72
2019-04-21T18:48:36.368Z,22.57
2019-04-21T18:51:04.793Z,22.44
2019-04-21T18:53:44.834Z,22.30
2019-04-21T18:56:05.863Z,22.15
2019-04-21T18:58:32.694Z,22.00
2019-04-21T19:01:07.531Z,21.81
2019-04-21T19:03:39.898Z,21.65
2019-04-21T19:06:11.691Z,21.52
2019-04-21T19:09:01.109Z,21.40
2019-04-21T19:11:23.736Z,21.30
2019-04-21T19:14:17.391Z,21.21
2019-04-21T19:16:33.215Z,21.12
2019-04-21T19:19:31.684Z,21.01
2019-04-21T19:21:24.610Z,20.92
2019-04-21T19:24:10.670Z,20.83
2019-04-21T19:26:37.716Z,20.75
2019-04-21T19:29:12.517Z,20.65
2019-04-21T19:34:01.095Z,20.50
2019-04-21T19:36:21.535Z,20.46
2019-04-21T19:38:59.642Z,20.39
2019-04-21T19:41:34.338Z,20.34
2019-04-21T19:44:14.514Z,20.29
2019-04-21T19:46:40.953Z,20.21
2019-04-21T19:49:24.153Z,20.13
2019-04-21T19:51:42.861Z,20.05
2019-04-21T19:54:06.348Z,19.98
2019-04-21T19:56:30.268Z,19.92
2019-04-21T19:59:01.175Z,19.84
2019-04-21T20:01:31.800Z,19.75
2019-04-21T20:04:02.800Z,19.67
2019-04-21T20:06:45.566Z,19.59
2019-04-21T20:09:24.852Z,19.51
2019-04-21T20:11:51.048Z,19.44
2019-04-21T20:16:53.147Z,19.25
2019-04-21T20:19:12.011Z,19.16
2019-04-21T20:21:40.939Z,19.08
2019-04-21T20:24:14.493Z,19.00
2019-04-21T20:26:46.012Z,18.91
2019-04-21T20:29:27.682Z,18.82
2019-04-21T20:31:55.075Z,18.74
2019-04-21T20:34:33.797Z,18.66
2019-04-21T20:37:02.160Z,18.57
2019-04-21T20:39:21.259Z,18.49
2019-04-21T20:42:01.787Z,18.44
2019-04-21T20:44:38.747Z,18.38
2019-04-21T20:47:06.572Z,18.35
2019-04-21T20:49:33.606Z,18.30
2019-04-21T20:52:10.755Z,18.31
2019-04-21T20:54:41.033Z,18.27
2019-04-21T20:57:11.312Z,18.32
2019-04-21T20:59:37.569Z,18.35
2019-04-21T21:02:10.138Z,18.35
2019-04-21T21:04:34.960Z,18.36
2019-04-21T21:07:28.220Z,18.38
2019-04-21T21:09:50.126Z,18.39
2019-04-21T21:14:46.944Z,18.37
2019-04-21T21:17:34.057Z,18.34
2019-04-21T21:19:55.764Z,18.25
2019-04-21T21:22:14.266Z,18.19
2019-04-21T21:24:53.576Z,18.14
2019-04-21T21:27:19.695Z,17.91
2019-04-21T21:29:56.672Z,17.81
2019-04-21T21:32:27.348Z,17.72
2019-04-21T21:34:57.836Z,17.62
2019-04-21T21:37:38.089Z,17.53
2019-04-21T21:40:02.839Z,17.45
2019-04-21T21:42:24.140Z,17.39
2019-04-21T21:44:50.489Z,17.35
2019-04-21T21:47:32.085Z,17.28
2019-04-21T21:50:01.209Z,17.19
2019-04-21T21:52:32.761Z,17.12
2019-04-21T21:54:49.808Z,17.07
2019-04-21T21:57:20.390Z,16.98
2019-04-21T21:59:54.286Z,16.87
2019-04-21T22:02:32.910Z,16.76
2019-04-21T22:05:01.436Z,16.67
2019-04-21T22:07:28.058Z,16.57
2019-04-21T22:09:54.693Z,16.51
2019-04-21T22:12:25.703Z,16.40
2019-04-21T22:14:55.674Z,16.30
2019-04-21T22:17:41.910Z,16.22
2019-04-21T22:20:14.230Z,16.15
2019-04-21T22:22:38.849Z,16.06
2019-04-21T22:25:09.477Z,15.99
2019-04-21T22:27:30.719Z,15.94
2019-04-21T22:30:03.864Z,15.88
2019-04-21T22:32:34.609Z,15.82
2019-04-21T22:35:08.800Z,15.73
2019-04-21T22:37:43.709Z,15.67
2019-04-21T22:40:19.277Z,15.59
2019-04-21T22:42:50.089Z,15.55
2019-04-21T22:45:11.290Z,15.48
2019-04-21T22:47:42.665Z,15.43
2019-04-21T22:50:17.596Z,15.37
2019-04-21T22:52:50.551Z,15.33
2019-04-21T22:55:22.629Z,15.28
2019-04-21T22:57:51.840Z,15.23
2019-04-21T23:00:22.343Z,15.18
2019-04-21T23:03:01.326Z,15.13
2019-04-21T23:05:32.909Z,15.06
2019-04-21T23:08:01.395Z,15.00
2019-04-21T23:10:27.409Z,14.96
2019-04-21T23:12:59.621Z,14.95
2019-04-21T23:15:37.508Z,14.94
2019-04-21T23:18:20.407Z,14.89
2019-04-21T23:20:47.779Z,14.85
2019-04-21T23:23:23.577Z,14.82
2019-04-21T23:25:47.176Z,14.78
2019-04-21T23:28:17.725Z,14.70
2019-04-21T23:31:00.631Z,14.62
2019-04-21T23:33:12.050Z,14.56
2019-04-21T23:35:43.465Z,14.51
2019-04-21T23:38:10.998Z,14.45
2019-04-21T23:40:48.811Z,14.41
2019-04-21T23:43:17.249Z,14.34
2019-04-21T23:45:45.331Z,14.27
2019-04-21T23:48:30.119Z,14.23
2019-04-21T23:50:56.105Z,14.14
2019-04-21T23:53:17.381Z,14.09
2019-04-21T23:55:47.396Z,14.03
2019-04-21T23:58:22.222Z,13.96
